createdAt,value
2018-12-25T00:01:28.275Z,99902.05
2018-12-25T00:04:00.234Z,99912.82
2018-12-25T00:06:32.711Z,99912.80
2018-12-25T00:09:26.769Z,99911.06
2018-12-25T00:11:58.613Z,99914.11
2018-12-25T00:14:30.766Z,99917.12
2018-12-25T00:17:02.634Z,99915.86
2018-12-25T00:19:34.522Z,99922.33
2018-12-25T00:22:06.421Z,99924.11
2018-12-25T00:24:38.288Z,99929.30
2018-12-25T00:27:10.166Z,99933.55
2018-12-25T00:29:42.082Z,99930.48
2018-12-25T00:32:15.086Z,99931.32
2018-12-25T00:34:46.969Z,99933.85
2018-12-25T00:37:25.832Z,99936.03
2018-12-25T00:39:57.720Z,99938.56
2018-12-25T00:42:29.626Z,99943.75
2018-12-25T00:45:01.632Z,99951.44
2018-12-25T00:47:34.680Z,99953.61
2018-12-25T00:50:06.709Z,99948.02
2018-12-25T00:52:41.716Z,99945.03
2018-12-25T00:55:13.603Z,99936.45
2018-12-25T00:57:45.495Z,99926.61
2018-12-25T01:00:17.493Z,99920.98
2018-12-25T01:02:49.374Z,99915.05
2018-12-25T01:05:21.282Z,99913.31
2018-12-25T01:07:53.220Z,99904.76
2018-12-25T01:10:25.104Z,99903.83
2018-12-25T01:12:56.992Z,99911.94
2018-12-25T01:15:28.860Z,99908.95
2018-12-25T01:18:00.758Z,99901.27
2018-12-25T01:20:32.623Z,99904.25
2018-12-25T01:23:04.654Z,99903.39
2018-12-25T01:25:37.911Z,99905.09
2018-12-25T01:28:09.962Z,99911.06
2018-12-25T01:30:41.854Z,99909.36
2018-12-25T01:33:13.754Z,99922.28
2018-12-25T01:35:45.632Z,99926.61
2018-12-25T01:38:17.518Z,99922.28
2018-12-25T01:40:49.414Z,99915.42
2018-12-25T01:43:21.393Z,99917.55
2018-12-25T01:45:53.305Z,99920.55
2018-12-25T01:48:25.184Z,99916.67
2018-12-25T01:50:57.421Z,99918.80
2018-12-25T01:53:29.283Z,99929.94
2018-12-25T01:56:01.156Z,99954.38
2018-12-25T01:58:33.041Z,99962.55
2018-12-25T02:01:08.327Z,99977.14
2018-12-25T02:03:40.176Z,99976.69
2018-12-25T02:06:12.184Z,99986.59
2018-12-25T02:08:44.147Z,99990.88
2018-12-25T02:11:16.151Z,99994.30
2018-12-25T02:13:51.009Z,99992.17
2018-12-25T02:16:22.909Z,99989.16
2018-12-25T02:18:54.774Z,99984.43
2018-12-25T02:21:26.670Z,99977.52
2018-12-25T02:23:58.555Z,99966.38
2018-12-25T02:26:30.413Z,99957.30
2018-12-25T02:29:02.516Z,99948.71
2018-12-25T02:31:34.391Z,99950.88
2018-12-25T02:34:06.305Z,99940.56
2018-12-25T02:36:39.722Z,99937.96
2018-12-25T02:39:11.585Z,99938.40
2018-12-25T02:41:43.521Z,99944.91
2018-12-25T02:44:15.402Z,99940.16
2018-12-25T02:46:47.352Z,99948.71
2018-12-25T02:49:19.236Z,99946.60
2018-12-25T02:51:51.106Z,99944.02
2018-12-25T02:54:22.975Z,99943.62
2018-12-25T02:56:54.863Z,99952.57
2018-12-25T02:59:26.727Z,99951.72
2018-12-25T03:01:58.775Z,99950.00
2018-12-25T03:04:30.739Z,99941.44
2018-12-25T03:07:02.616Z,99940.13
2018-12-25T03:09:36.852Z,99935.45
2018-12-25T03:12:08.814Z,99935.83
2018-12-25T03:14:41.022Z,99934.14
2018-12-25T03:17:14.281Z,99923.44
2018-12-25T03:19:46.254Z,99927.30
2018-12-25T03:22:18.213Z,99921.73
2018-12-25T03:24:50.099Z,99927.70
2018-12-25T03:27:21.979Z,99928.08
2018-12-25T03:29:54.278Z,99928.54
2018-12-25T03:32:26.146Z,99923.84
2018-12-25T03:34:58.008Z,99925.13
2018-12-25T03:37:30.053Z,99932.05
2018-12-25T03:40:01.921Z,99932.91
2018-12-25T03:42:35.178Z,99926.06
2018-12-25T03:45:07.447Z,99931.19
2018-12-25T03:47:40.812Z,99926.96
2018-12-25T03:50:12.678Z,99933.01
2018-12-25T03:52:44.696Z,99923.95
2018-12-25T03:55:16.549Z,99927.34
2018-12-25T03:57:48.420Z,99929.52
2018-12-25T04:00:20.300Z,99927.75
2018-12-25T04:02:52.187Z,99932.04
2018-12-25T04:05:24.092Z,99932.05
2018-12-25T04:07:57.962Z,99930.84
2018-12-25T04:10:29.850Z,99922.28
2018-12-25T04:13:01.745Z,99924.03
2018-12-25T04:15:35.681Z,99927.89
2018-12-25T04:18:07.702Z,99934.31
2018-12-25T04:20:39.554Z,99929.58
2018-12-25T04:23:11.439Z,99925.27
2018-12-25T04:25:43.342Z,99920.94
2018-12-25T04:28:15.191Z,99917.96
2018-12-25T04:30:48.091Z,99920.48
2018-12-25T04:33:19.944Z,99917.91
2018-12-25T04:35:51.816Z,99916.61
2018-12-25T04:38:23.659Z,99913.57
2018-12-25T04:40:55.923Z,99911.37
2018-12-25T04:43:27.788Z,99910.97
2018-12-25T04:45:59.692Z,99904.93
2018-12-25T04:48:31.650Z,99906.16
2018-12-25T04:51:03.530Z,99910.93
2018-12-25T04:53:35.422Z,99910.02
2018-12-25T04:56:07.322Z,99913.84
2018-12-25T04:58:41.656Z,99921.12
2018-12-25T05:01:13.626Z,99918.09
2018-12-25T05:03:45.631Z,99919.84
2018-12-25T05:06:17.509Z,99923.63
2018-12-25T05:08:49.394Z,99936.89
2018-12-25T05:11:21.253Z,99934.70
2018-12-25T05:13:53.316Z,99939.38
2018-12-25T05:16:25.287Z,99947.06
2018-12-25T05:19:03.908Z,99944.93
2018-12-25T05:21:35.870Z,99952.14
2018-12-25T05:24:07.762Z,99951.70
2018-12-25T05:26:41.667Z,99957.71
2018-12-25T05:29:13.578Z,99956.41
2018-12-25T05:31:45.508Z,99955.53
2018-12-25T05:34:17.815Z,99958.94
2018-12-25T05:36:49.748Z,99955.52
2018-12-25T05:39:21.787Z,99959.03
2018-12-25T05:41:53.659Z,99955.99
2018-12-25T05:44:25.564Z,99967.56
2018-12-25T05:46:57.443Z,99962.90
2018-12-25T05:49:29.339Z,99965.47
2018-12-25T05:52:11.549Z,99965.88
2018-12-25T05:54:47.936Z,99970.58
2018-12-25T05:57:23.452Z,99970.53
2018-12-25T06:00:01.817Z,99973.14
2018-12-25T06:02:35.147Z,99967.97
2018-12-25T06:05:10.233Z,99965.81
2018-12-25T06:07:45.710Z,99964.55
2018-12-25T06:10:21.958Z,99965.88
2018-12-25T06:12:58.153Z,99968.53
2018-12-25T06:15:34.396Z,99968.48
2018-12-25T06:18:10.876Z,99956.48
2018-12-25T06:20:42.733Z,99960.77
2018-12-25T06:23:17.610Z,99965.94
2018-12-25T06:25:49.487Z,99965.09
2018-12-25T06:28:23.377Z,99965.93
2018-12-25T06:31:01.058Z,99961.17
2018-12-25T06:33:38.993Z,99958.13
2018-12-25T06:36:10.914Z,99956.39
2018-12-25T06:38:42.766Z,99960.66
2018-12-25T06:41:14.645Z,99961.98
2018-12-25T06:43:55.458Z,99965.46
2018-12-25T06:46:27.433Z,99974.84
2018-12-25T06:49:03.932Z,99964.50
2018-12-25T06:51:35.786Z,99955.14
2018-12-25T06:54:12.136Z,99960.28
2018-12-25T06:56:52.365Z,99956.80
2018-12-25T06:59:24.334Z,99964.55
2018-12-25T07:02:00.263Z,99972.28
2018-12-25T07:04:37.663Z,99974.01
2018-12-25T07:07:09.581Z,99967.99
2018-12-25T07:09:43.845Z,99965.02
2018-12-25T07:12:15.775Z,99967.64
2018-12-25T07:14:53.229Z,99970.73
2018-12-25T07:17:28.474Z,99968.20
2018-12-25T07:20:00.385Z,99971.13
2018-12-25T07:22:34.355Z,99968.50
2018-12-25T07:25:06.647Z,99976.61
2018-12-25T07:27:38.526Z,99980.10
2018-12-25T07:30:14.258Z,99984.88
2018-12-25T07:32:46.163Z,99980.14
2018-12-25T07:35:18.069Z,99982.32
2018-12-25T07:37:51.738Z,99982.78
2018-12-25T07:40:23.757Z,99978.86
2018-12-25T07:42:58.421Z,99976.25
2018-12-25T07:45:30.289Z,99976.29
2018-12-25T07:48:03.298Z,99977.52
2018-12-25T07:50:38.274Z,99971.59
2018-12-25T07:53:10.237Z,99968.64
2018-12-25T07:55:44.191Z,99972.02
2018-12-25T07:58:17.387Z,99962.53
2018-12-25T08:00:52.117Z,99972.88
2018-12-25T08:03:26.640Z,99974.14
2018-12-25T08:06:01.478Z,99976.70
2018-12-25T08:08:33.384Z,99978.78
2018-12-25T08:11:09.795Z,99986.89
2018-12-25T08:13:41.673Z,99982.17
2018-12-25T08:16:13.545Z,99979.61
2018-12-25T08:18:45.481Z,99971.42
2018-12-25T08:21:17.472Z,99968.83
2018-12-25T08:23:49.452Z,99967.05
2018-12-25T08:26:26.922Z,99969.16
2018-12-25T08:28:58.816Z,99966.98
2018-12-25T08:31:30.776Z,99971.80
2018-12-25T08:34:02.682Z,99975.72
2018-12-25T08:36:36.549Z,99972.69
2018-12-25T08:39:14.716Z,99971.81
2018-12-25T08:41:52.454Z,99972.22
2018-12-25T08:44:27.116Z,99973.48
2018-12-25T08:47:03.256Z,99973.86
2018-12-25T08:49:37.203Z,99975.55
2018-12-25T08:52:09.109Z,99973.86
2018-12-25T08:54:41.034Z,99975.13
2018-12-25T08:57:13.053Z,99978.52
2018-12-25T08:59:48.210Z,99972.48
2018-12-25T09:02:25.896Z,99975.04
2018-12-25T09:04:57.867Z,99988.28
2018-12-25T09:07:29.784Z,99977.95
2018-12-25T09:10:07.418Z,99973.33
2018-12-25T09:12:39.475Z,99969.50
2018-12-25T09:15:11.408Z,99975.90
2018-12-25T09:17:45.345Z,99980.67
2018-12-25T09:20:17.269Z,99995.66
2018-12-25T09:22:49.175Z,100002.44
2018-12-25T09:25:21.087Z,100002.80
2018-12-25T09:27:58.692Z,100012.20
2018-12-25T09:30:30.573Z,100011.73
2018-12-25T09:33:02.432Z,100012.09
2018-12-25T09:35:37.450Z,100010.71
2018-12-25T09:38:09.308Z,100020.98
2018-12-25T09:40:41.233Z,100018.40
2018-12-25T09:43:15.507Z,100018.84
2018-12-25T09:45:53.274Z,100013.25
2018-12-25T09:48:26.993Z,100014.09
2018-12-25T09:50:58.951Z,100011.50
2018-12-25T09:53:30.879Z,100011.86
2018-12-25T09:56:02.804Z,100011.81
2018-12-25T09:58:34.712Z,100016.05
2018-12-25T10:01:06.634Z,100027.17
2018-12-25T10:03:38.553Z,100028.03
2018-12-25T10:06:13.054Z,100039.22
2018-12-25T10:08:44.361Z,100042.30
2018-12-25T10:11:16.237Z,100049.22
2018-12-25T10:13:49.803Z,100048.84
2018-12-25T10:16:21.687Z,100032.08
2018-12-25T10:18:56.703Z,100026.40
2018-12-25T10:21:28.596Z,100028.91
2018-12-25T10:24:00.605Z,100027.98
2018-12-25T10:26:32.513Z,100038.55
2018-12-25T10:29:04.793Z,100029.42
2018-12-25T10:31:36.711Z,100033.28
2018-12-25T10:34:11.701Z,100026.31
2018-12-25T10:36:43.699Z,100027.53
2018-12-25T10:39:17.723Z,100031.81
2018-12-25T10:41:49.922Z,100020.16
2018-12-25T10:44:23.451Z,100001.16
2018-12-25T10:46:55.428Z,99993.77
2018-12-25T10:49:27.348Z,99983.75
2018-12-25T10:51:59.370Z,99975.93
2018-12-25T10:54:31.250Z,99979.29
2018-12-25T10:57:04.654Z,99992.21
2018-12-25T10:59:36.571Z,99985.34
2018-12-25T11:02:08.454Z,99995.68
2018-12-25T11:04:40.374Z,99999.49
2018-12-25T11:07:14.864Z,99995.27
2018-12-25T11:09:46.779Z,99992.52
2018-12-25T11:12:20.521Z,99980.72
2018-12-25T11:14:52.435Z,99976.80
2018-12-25T11:17:24.325Z,99972.87
2018-12-25T11:19:59.280Z,99971.03
2018-12-25T11:22:31.155Z,99960.59
2018-12-25T11:25:03.063Z,99953.56
2018-12-25T11:27:34.932Z,99935.08
2018-12-25T11:30:07.642Z,99930.78
2018-12-25T11:32:39.583Z,99925.96
2018-12-25T11:35:11.525Z,99931.10
2018-12-25T11:37:43.439Z,99926.31
2018-12-25T11:40:15.359Z,99936.07
2018-12-25T11:42:47.253Z,99934.01
2018-12-25T11:45:20.927Z,99937.43
2018-12-25T11:47:52.810Z,99932.24
2018-12-25T11:50:24.741Z,99938.13
2018-12-25T11:52:56.643Z,99934.26
2018-12-25T11:55:31.432Z,99930.28
2018-12-25T11:58:03.332Z,99934.46
2018-12-25T12:00:35.211Z,99932.20
2018-12-25T12:03:10.545Z,99930.59
2018-12-25T12:05:42.448Z,99934.52
2018-12-25T12:08:14.648Z,99928.50
2018-12-25T12:10:46.548Z,99929.42
2018-12-25T12:13:18.572Z,99932.44
2018-12-25T12:15:52.079Z,99933.09
2018-12-25T12:18:25.498Z,99934.73
2018-12-25T12:21:00.919Z,99943.34
2018-12-25T12:23:32.805Z,99944.58
2018-12-25T12:26:06.344Z,99945.95
2018-12-25T12:28:43.098Z,99940.03
2018-12-25T12:31:19.010Z,99943.78
2018-12-25T12:33:54.711Z,99946.36
2018-12-25T12:36:26.294Z,99938.63
2018-12-25T12:38:58.182Z,99942.53
2018-12-25T12:41:33.876Z,99943.73
2018-12-25T12:44:11.875Z,99947.75
2018-12-25T12:46:44.999Z,99942.01
2018-12-25T12:49:20.595Z,99940.30
2018-12-25T12:51:53.911Z,99933.95
2018-12-25T12:54:25.783Z,99942.85
2018-12-25T12:57:00.654Z,99939.42
2018-12-25T12:59:36.287Z,99935.50
2018-12-25T13:02:09.608Z,99935.38
2018-12-25T13:04:44.296Z,99936.25
2018-12-25T13:07:16.217Z,99952.17
2018-12-25T13:09:56.963Z,99945.74
2018-12-25T13:12:31.272Z,99946.14
2018-12-25T13:15:03.221Z,99949.12
2018-12-25T13:17:35.142Z,99943.97
2018-12-25T13:20:07.277Z,99944.00
2018-12-25T13:22:39.432Z,99938.78
2018-12-25T13:25:13.297Z,99932.30
2018-12-25T13:27:48.828Z,99933.15
2018-12-25T13:30:22.704Z,99943.97
2018-12-25T13:32:57.054Z,99952.95
2018-12-25T13:35:28.937Z,99955.16
2018-12-25T13:38:05.351Z,99955.61
2018-12-25T13:40:43.131Z,99955.94
2018-12-25T13:43:17.585Z,99957.16
2018-12-25T13:45:49.623Z,99954.69
2018-12-25T13:48:32.285Z,99962.39
2018-12-25T13:51:04.353Z,99968.41
2018-12-25T13:53:42.918Z,99977.03
2018-12-25T13:56:18.337Z,99982.23
2018-12-25T13:58:50.350Z,99983.52
2018-12-25T14:01:22.298Z,99981.78
2018-12-25T14:03:57.133Z,99977.08
2018-12-25T14:06:34.326Z,99987.86
2018-12-25T14:09:11.600Z,99995.29
2018-12-25T14:11:50.981Z,99997.47
2018-12-25T14:14:29.686Z,99995.41
2018-12-25T14:17:05.001Z,99998.42
2018-12-25T14:19:36.915Z,99995.02
2018-12-25T14:22:13.645Z,99996.80
2018-12-25T14:24:47.146Z,99996.42
2018-12-25T14:27:22.014Z,99997.30
2018-12-25T14:29:53.962Z,99990.44
2018-12-25T14:32:26.159Z,99986.60
2018-12-25T14:34:59.391Z,99991.30
2018-12-25T14:37:31.297Z,99988.65
2018-12-25T14:40:03.252Z,99983.59
2018-12-25T14:42:35.146Z,99986.67
2018-12-25T14:45:16.268Z,99985.42
2018-12-25T14:47:48.164Z,99988.06
2018-12-25T14:50:23.163Z,99987.70
2018-12-25T14:52:55.092Z,99996.38
2018-12-25T14:55:28.043Z,100000.30
2018-12-25T14:57:59.936Z,99999.32
2018-12-25T15:00:31.997Z,99998.91
2018-12-25T15:03:03.891Z,99998.06
2018-12-25T15:05:35.825Z,100002.41
2018-12-25T15:08:07.763Z,100000.30
2018-12-25T15:10:43.770Z,99995.73
2018-12-25T15:13:15.648Z,100000.06
2018-12-25T15:15:49.735Z,100006.95
2018-12-25T15:18:23.447Z,100003.90
2018-12-25T15:20:55.347Z,100003.95
2018-12-25T15:23:28.243Z,100008.78
2018-12-25T15:26:00.431Z,100016.98
2018-12-25T15:28:32.325Z,100018.28
2018-12-25T15:31:05.803Z,100019.24
2018-12-25T15:33:37.909Z,100022.22
2018-12-25T15:36:09.925Z,100020.11
2018-12-25T15:38:41.871Z,100017.09
2018-12-25T15:41:14.930Z,100017.70
2018-12-25T15:43:46.835Z,100020.37
2018-12-25T15:46:18.881Z,100024.19
2018-12-25T15:48:50.766Z,100022.59
2018-12-25T15:51:22.698Z,100020.95
2018-12-25T15:53:54.605Z,100014.20
2018-12-25T15:56:28.225Z,100010.39
2018-12-25T15:59:00.210Z,99996.66
2018-12-25T16:01:32.356Z,99987.23
2018-12-25T16:04:04.329Z,99996.25
2018-12-25T16:06:36.348Z,100001.46
2018-12-25T16:09:09.271Z,100004.90
2018-12-25T16:11:41.202Z,100004.47
2018-12-25T16:14:13.098Z,100013.01
2018-12-25T16:16:45.001Z,100015.62
2018-12-25T16:19:16.952Z,100014.78
2018-12-25T16:21:49.067Z,100006.64
2018-12-25T16:24:27.285Z,100004.11
2018-12-25T16:26:54.946Z,100001.64
2018-12-25T16:29:26.845Z,100014.13
2018-12-25T16:31:58.788Z,100002.14
2018-12-25T16:34:30.761Z,100011.61
2018-12-25T16:37:03.764Z,100009.03
2018-12-25T16:39:35.644Z,100012.05
2018-12-25T16:42:07.556Z,100011.62
2018-12-25T16:44:39.469Z,100007.73
2018-12-25T16:47:14.382Z,100006.91
2018-12-25T16:49:46.375Z,100002.60
2018-12-25T16:52:18.337Z,99997.04
2018-12-25T16:54:53.226Z,100000.91
2018-12-25T16:57:25.146Z,99991.45
2018-12-25T16:59:57.060Z,99986.80
2018-12-25T17:02:28.954Z,99985.53
2018-12-25T17:05:00.873Z,99988.09
2018-12-25T17:07:32.766Z,99994.97
2018-12-25T17:10:08.240Z,99990.69
2018-12-25T17:12:40.154Z,99994.58
2018-12-25T17:15:13.199Z,99989.46
2018-12-25T17:17:45.505Z,99985.19
2018-12-25T17:20:20.620Z,99987.75
2018-12-25T17:22:57.326Z,99991.19
2018-12-25T17:25:28.019Z,99989.46
2018-12-25T17:28:01.066Z,99988.99
2018-12-25T17:30:37.576Z,99985.59
2018-12-25T17:33:11.582Z,99980.47
2018-12-25T17:35:43.537Z,99988.20
2018-12-25T17:38:18.169Z,99986.46
2018-12-25T17:40:56.373Z,99977.02
2018-12-25T17:43:28.274Z,99979.67
2018-12-25T17:46:00.312Z,99965.09
2018-12-25T17:48:35.252Z,99971.53
2018-12-25T17:51:08.242Z,99971.09
2018-12-25T17:53:42.304Z,99969.41
2018-12-25T17:56:14.319Z,99967.29
2018-12-25T17:58:47.631Z,99972.46
2018-12-25T18:01:19.604Z,99968.22
2018-12-25T18:03:54.801Z,99963.50
2018-12-25T18:06:28.613Z,99970.39
2018-12-25T18:09:02.124Z,99972.51
2018-12-25T18:11:34.133Z,99965.20
2018-12-25T18:14:05.997Z,99961.80
2018-12-25T18:16:37.938Z,99965.66
2018-12-25T18:19:13.932Z,99960.50
2018-12-25T18:21:45.849Z,99960.05
2018-12-25T18:24:19.784Z,99962.63
2018-12-25T18:26:52.972Z,99963.48
2018-12-25T18:29:27.784Z,99954.44
2018-12-25T18:32:00.964Z,99960.82
2018-12-25T18:34:34.494Z,99962.08
2018-12-25T18:37:13.190Z,99966.34
2018-12-25T18:40:00.024Z,99962.01
2018-12-25T18:42:31.902Z,99952.53
2018-12-25T18:45:04.070Z,99949.91
2018-12-25T18:47:36.728Z,99949.44
2018-12-25T18:50:12.894Z,99955.02
2018-12-25T18:52:44.880Z,99955.89
2018-12-25T18:55:16.768Z,99949.86
2018-12-25T18:57:48.678Z,99955.03
2018-12-25T19:00:20.616Z,99948.64
2018-12-25T19:02:52.566Z,99953.41
2018-12-25T19:05:24.574Z,99953.42
2018-12-25T19:07:56.479Z,99953.86
2018-12-25T19:10:31.552Z,99953.03
2018-12-25T19:13:03.452Z,99956.84
2018-12-25T19:15:38.438Z,99960.25
2018-12-25T19:18:16.982Z,99963.25
2018-12-25T19:20:48.894Z,99966.27
2018-12-25T19:23:23.823Z,99963.69
2018-12-25T19:25:57.739Z,99958.55
2018-12-25T19:28:30.707Z,99955.98
2018-12-25T19:31:02.611Z,99958.94
2018-12-25T19:33:42.107Z,99959.34
2018-12-25T19:36:16.282Z,99956.75
2018-12-25T19:38:52.586Z,99953.36
2018-12-25T19:41:27.051Z,99955.45
2018-12-25T19:44:06.118Z,99955.40
2018-12-25T19:46:38.015Z,99952.80
2018-12-25T19:49:10.073Z,99948.95
2018-12-25T19:51:42.070Z,99944.27
2018-12-25T19:54:16.448Z,99943.80
2018-12-25T19:56:48.352Z,99941.22
2018-12-25T19:59:20.281Z,99941.27
2018-12-25T20:01:54.879Z,99938.67
2018-12-25T20:04:58.291Z,99935.27
2018-12-25T20:08:32.099Z,99929.24
2018-12-25T20:12:22.220Z,99929.70
2018-12-25T20:15:57.851Z,99936.17
2018-12-25T20:19:41.303Z,99929.79
2018-12-25T20:23:18.835Z,99925.11
2018-12-25T20:26:54.759Z,99919.95
2018-12-25T20:30:40.976Z,99911.79
2018-12-25T20:34:01.247Z,99915.22
2018-12-25T20:37:50.297Z,99903.70
2018-12-25T20:41:16.306Z,99898.60
2018-12-25T20:44:36.097Z,99906.72
2018-12-25T20:48:23.077Z,99908.49
2018-12-25T20:51:47.007Z,99908.02
2018-12-25T20:55:19.077Z,99903.78
2018-12-25T20:58:53.134Z,99902.53
2018-12-25T21:02:17.643Z,99900.38
2018-12-25T21:06:01.421Z,99894.84
2018-12-25T21:09:46.423Z,99893.53
2018-12-25T21:13:20.608Z,99882.36
2018-12-25T21:16:57.809Z,99872.20
2018-12-25T21:20:53.413Z,99867.89
2018-12-25T21:24:19.747Z,99876.02
2018-12-25T21:27:31.528Z,99873.09
2018-12-25T21:30:09.563Z,99874.02
2018-12-25T21:32:43.646Z,99882.66
2018-12-25T21:35:25.898Z,99878.83
2018-12-25T21:38:01.553Z,99877.53
2018-12-25T21:40:35.930Z,99878.83
2018-12-25T21:43:08.160Z,99882.67
2018-12-25T21:45:43.970Z,99891.20
2018-12-25T21:48:19.166Z,99890.33
2018-12-25T21:50:54.031Z,99897.14
2018-12-25T21:53:29.963Z,99901.89
2018-12-25T21:56:02.575Z,99899.31
2018-12-25T21:58:36.431Z,99892.00
2018-12-25T22:01:11.346Z,99886.80
2018-12-25T22:03:47.768Z,99891.06
2018-12-25T22:06:19.675Z,99891.59
2018-12-25T22:08:59.016Z,99893.31
2018-12-25T22:11:32.641Z,99901.45
2018-12-25T22:14:04.538Z,99898.03
2018-12-25T22:16:36.536Z,99902.33
2018-12-25T22:19:08.492Z,99898.46
2018-12-25T22:21:42.910Z,99896.32
2018-12-25T22:24:14.546Z,99895.88
2018-12-25T22:26:46.787Z,99894.57
2018-12-25T22:29:18.707Z,99885.22
2018-12-25T22:31:50.607Z,99881.34
2018-12-25T22:34:22.594Z,99875.31
2018-12-25T22:36:55.906Z,99881.75
2018-12-25T22:39:31.776Z,99874.05
2018-12-25T22:42:05.816Z,99875.33
2018-12-25T22:44:39.871Z,99874.45
2018-12-25T22:47:11.782Z,99871.44
2018-12-25T22:49:44.811Z,99872.35
2018-12-25T22:52:16.742Z,99871.93
2018-12-25T22:54:51.676Z,99857.75
2018-12-25T22:57:25.917Z,99853.48
2018-12-25T23:00:00.760Z,99860.91
2018-12-25T23:02:44.138Z,99861.73
2018-12-25T23:05:16.043Z,99869.00
2018-12-25T23:07:47.971Z,99863.87
2018-12-25T23:10:21.663Z,99859.59
2018-12-25T23:12:53.604Z,99857.56
2018-12-25T23:15:25.461Z,99840.44
2018-12-25T23:17:57.406Z,99832.70
2018-12-25T23:20:29.457Z,99832.70
2018-12-25T23:23:11.079Z,99838.66
2018-12-25T23:25:44.663Z,99840.37
2018-12-25T23:28:16.794Z,99829.25
2018-12-25T23:30:50.018Z,99821.96
2018-12-25T23:33:22.055Z,99804.84
2018-12-25T23:35:53.971Z,99814.67
2018-12-25T23:38:27.356Z,99810.36
2018-12-25T23:41:01.258Z,99817.27
2018-12-25T23:43:35.504Z,99820.31
2018-12-25T23:46:07.834Z,99819.41
2018-12-25T23:48:39.856Z,99822.39
2018-12-25T23:51:13.671Z,99825.42
2018-12-25T23:53:48.194Z,99824.57
2018-12-25T23:56:27.244Z,99826.28
2018-12-25T23:58:59.323Z,99832.23
